createdAt,value
2023-01-07T00:02:28.221Z,96.10
2023-01-07T00:05:32.414Z,96.20
2023-01-07T00:08:36.793Z,96.20
2023-01-07T00:11:41.613Z,96.10
2023-01-07T00:14:44.471Z,96.00
2023-01-07T00:17:47.291Z,96.00
2023-01-07T00:20:51.465Z,95.80
2023-01-07T00:23:56.152Z,95.70
2023-01-07T00:26:58.964Z,95.60
2023-01-07T00:30:01.851Z,95.60
2023-01-07T00:33:06.283Z,96.00
2023-01-07T00:36:11.661Z,96.20
2023-01-07T00:39:17.468Z,96.40
2023-01-07T00:42:37.673Z,96.50
2023-01-07T00:45:40.536Z,96.20
2023-01-07T00:48:44.836Z,96.30
2023-01-07T00:51:49.014Z,96.50
2023-01-07T00:54:51.849Z,96.30
2023-01-07T00:57:55.240Z,96.30
2023-01-07T01:00:59.196Z,96.30
2023-01-07T01:04:02.601Z,96.30
2023-01-07T01:07:06.778Z,96.30
2023-01-07T01:10:12.351Z,96.20
2023-01-07T01:13:18.281Z,96.10
2023-01-07T01:16:21.433Z,96.30
2023-01-07T01:19:24.407Z,96.10
2023-01-07T01:22:29.106Z,96.30
2023-01-07T01:25:31.944Z,96.30
2023-01-07T01:28:35.457Z,96.30
2023-01-07T01:31:38.344Z,96.30
2023-01-07T01:34:41.621Z,96.20
2023-01-07T01:37:45.775Z,96.30
2023-01-07T01:40:48.745Z,96.30
2023-01-07T01:43:51.888Z,96.40
2023-01-07T01:46:54.881Z,96.30
2023-01-07T01:50:02.799Z,96.40
2023-01-07T01:53:10.915Z,96.40
2023-01-07T01:56:17.112Z,96.40
2023-01-07T01:59:23.393Z,96.20
2023-01-07T02:02:30.858Z,96.10
2023-01-07T02:05:39.886Z,96.40
2023-01-07T02:08:44.619Z,96.30
2023-01-07T02:11:56.450Z,96.40
2023-01-07T02:15:09.590Z,96.10
2023-01-07T02:18:38.744Z,96.40
2023-01-07T02:21:52.690Z,96.50
2023-01-07T02:25:19.923Z,96.40
2023-01-07T02:28:53.159Z,96.30
2023-01-07T02:32:24.274Z,96.50
2023-01-07T02:35:39.877Z,96.30
2023-01-07T02:38:54.648Z,96.40
2023-01-07T02:42:00.054Z,96.00
2023-01-07T02:45:09.650Z,95.80
2023-01-07T02:48:16.642Z,96.10
2023-01-07T02:51:19.488Z,96.40
2023-01-07T02:54:24.722Z,95.90
2023-01-07T02:58:08.893Z,96.10
2023-01-07T03:01:25.093Z,96.10
2023-01-07T03:04:44.219Z,95.90
2023-01-07T03:07:57.467Z,96.10
2023-01-07T03:11:01.975Z,96.10
2023-01-07T03:14:09.663Z,96.10
2023-01-07T03:17:18.394Z,96.20
2023-01-07T03:20:25.912Z,95.80
2023-01-07T03:23:30.804Z,96.10
2023-01-07T03:26:38.243Z,96.30
2023-01-07T03:29:41.548Z,96.30
2023-01-07T03:32:48.024Z,96.30
2023-01-07T03:35:54.067Z,96.00
2023-01-07T03:38:58.327Z,95.90
2023-01-07T03:42:18.584Z,95.90
2023-01-07T03:45:23.918Z,95.90
2023-01-07T03:48:26.887Z,95.80
2023-01-07T03:51:31.128Z,95.80
2023-01-07T03:54:33.922Z,95.90
2023-01-07T03:57:37.034Z,95.80
2023-01-07T04:00:39.866Z,95.70
2023-01-07T04:03:42.672Z,95.80
2023-01-07T04:06:47.242Z,95.80
2023-01-07T04:09:50.851Z,95.70
2023-01-07T04:12:53.724Z,95.90
2023-01-07T04:15:56.545Z,95.80
2023-01-07T04:18:59.387Z,96.00
2023-01-07T04:22:03.535Z,95.90
2023-01-07T04:25:07.205Z,96.00
2023-01-07T04:28:10.106Z,96.00
2023-01-07T04:31:12.974Z,95.90
2023-01-07T04:34:15.818Z,95.70
2023-01-07T04:37:20.004Z,95.80
2023-01-07T04:40:22.825Z,95.90
2023-01-07T04:43:25.707Z,95.80
2023-01-07T04:46:28.548Z,95.80
2023-01-07T04:49:31.379Z,95.60
2023-01-07T04:52:35.785Z,95.90
2023-01-07T04:55:38.920Z,95.70
2023-01-07T04:58:42.100Z,95.80
2023-01-07T05:01:44.978Z,95.60
2023-01-07T05:04:48.157Z,95.60
2023-01-07T05:07:52.395Z,95.50
2023-01-07T05:10:55.301Z,95.10
2023-01-07T05:14:01.061Z,95.10
2023-01-07T05:17:03.971Z,94.70
2023-01-07T05:20:08.729Z,94.60
2023-01-07T05:23:13.046Z,94.50
2023-01-07T05:26:15.869Z,94.70
2023-01-07T05:29:18.680Z,94.60
2023-01-07T05:32:21.531Z,94.60
2023-01-07T05:35:24.373Z,94.80
2023-01-07T05:38:28.640Z,94.90
2023-01-07T05:41:31.528Z,94.90
2023-01-07T05:44:34.354Z,94.80
2023-01-07T05:47:37.170Z,94.90
2023-01-07T05:50:40.117Z,94.80
2023-01-07T05:53:44.272Z,94.70
2023-01-07T05:56:47.116Z,94.60
2023-01-07T05:59:49.933Z,94.50
2023-01-07T06:02:52.791Z,94.40
2023-01-07T06:05:55.607Z,94.40
2023-01-07T06:08:59.791Z,94.20
2023-01-07T06:12:02.609Z,94.20
2023-01-07T06:15:07.081Z,94.10
2023-01-07T06:18:10.011Z,94.20
2023-01-07T06:21:12.849Z,94.20
2023-01-07T06:24:17.096Z,94.00
2023-01-07T06:27:19.917Z,94.10
2023-01-07T06:30:22.835Z,94.30
2023-01-07T06:33:25.644Z,94.30
2023-01-07T06:36:28.464Z,94.20
2023-01-07T06:39:32.614Z,94.10
2023-01-07T06:42:35.582Z,93.90
2023-01-07T06:45:40.649Z,94.10
2023-01-07T06:48:44.240Z,94.20
2023-01-07T06:51:47.053Z,94.20
2023-01-07T06:54:51.222Z,94.20
2023-01-07T06:57:54.088Z,94.00
2023-01-07T07:00:56.929Z,93.90
2023-01-07T07:03:59.814Z,94.00
2023-01-07T07:07:02.608Z,94.10
2023-01-07T07:10:08.809Z,94.20
2023-01-07T07:13:12.003Z,94.20
2023-01-07T07:16:14.870Z,94.10
2023-01-07T07:19:17.724Z,94.20
2023-01-07T07:22:20.537Z,94.10
2023-01-07T07:25:24.759Z,94.10
2023-01-07T07:28:27.579Z,94.20
2023-01-07T07:31:30.413Z,94.90
2023-01-07T07:34:35.195Z,94.10
2023-01-07T07:37:39.037Z,94.20
2023-01-07T07:40:43.193Z,94.30
2023-01-07T07:43:46.003Z,94.50
2023-01-07T07:46:48.921Z,94.70
2023-01-07T07:49:52.063Z,94.70
2023-01-07T07:52:56.463Z,94.80
2023-01-07T07:56:00.773Z,94.80
2023-01-07T07:59:03.790Z,94.80
2023-01-07T08:02:07.024Z,95.00
2023-01-07T08:05:11.366Z,95.20
2023-01-07T08:08:15.817Z,95.30
2023-01-07T08:11:20.005Z,95.60
2023-01-07T08:14:22.856Z,95.90
2023-01-07T08:17:25.678Z,96.00
2023-01-07T08:20:28.881Z,96.00
2023-01-07T08:23:31.675Z,96.40
2023-01-07T08:26:35.824Z,96.40
2023-01-07T08:29:38.670Z,96.50
2023-01-07T08:32:41.486Z,96.70
2023-01-07T08:35:45.672Z,96.70
2023-01-07T08:38:51.731Z,97.10
2023-01-07T08:41:55.994Z,97.20
2023-01-07T08:44:59.131Z,97.20
2023-01-07T08:48:02.089Z,97.20
2023-01-07T08:51:05.007Z,97.30
2023-01-07T08:54:07.847Z,97.50
2023-01-07T08:57:12.004Z,97.60
2023-01-07T09:00:16.151Z,97.60
2023-01-07T09:03:19.163Z,97.70
2023-01-07T09:06:23.215Z,97.40
2023-01-07T09:09:26.057Z,97.00
2023-01-07T09:12:30.237Z,96.70
2023-01-07T09:15:33.063Z,96.70
2023-01-07T09:18:35.903Z,96.50
2023-01-07T09:21:38.756Z,96.50
2023-01-07T09:24:41.574Z,96.50
2023-01-07T09:27:46.620Z,96.10
2023-01-07T09:30:49.449Z,95.20
2023-01-07T09:33:52.302Z,95.40
2023-01-07T09:36:55.133Z,95.90
2023-01-07T09:39:57.971Z,95.40
2023-01-07T09:43:08.815Z,95.10
2023-01-07T09:46:12.903Z,95.20
2023-01-07T09:49:19.483Z,94.90
2023-01-07T09:52:30.501Z,94.90
2023-01-07T09:55:36.310Z,94.90
2023-01-07T09:58:42.841Z,94.60
2023-01-07T10:01:50.687Z,94.30
2023-01-07T10:05:03.255Z,94.30
2023-01-07T10:08:29.349Z,94.10
2023-01-07T10:11:46.439Z,94.00
2023-01-07T10:15:06.187Z,93.40
2023-01-07T10:18:31.469Z,93.00
2023-01-07T10:21:41.114Z,93.30
2023-01-07T10:24:47.288Z,93.90
2023-01-07T10:27:52.385Z,93.20
2023-01-07T10:30:56.585Z,92.90
2023-01-07T10:34:00.712Z,93.40
2023-01-07T10:37:07.161Z,92.50
2023-01-07T10:40:26.080Z,92.70
2023-01-07T10:43:44.898Z,92.20
2023-01-07T10:47:00.457Z,91.40
2023-01-07T10:50:31.088Z,91.50
2023-01-07T10:53:45.130Z,91.20
2023-01-07T10:56:51.057Z,91.00
2023-01-07T10:59:56.933Z,90.80
2023-01-07T11:03:01.268Z,90.20
2023-01-07T11:06:09.396Z,90.40
2023-01-07T11:09:18.309Z,90.70
2023-01-07T11:12:36.957Z,90.10
2023-01-07T11:15:45.920Z,89.00
2023-01-07T11:18:55.929Z,88.60
2023-01-07T11:21:58.775Z,88.10
2023-01-07T11:25:03.438Z,88.30
2023-01-07T11:28:17.710Z,87.90
2023-01-07T11:31:21.732Z,87.10
2023-01-07T11:34:29.247Z,87.50
2023-01-07T11:37:35.037Z,85.90
2023-01-07T11:40:37.852Z,85.80
2023-01-07T11:43:41.564Z,86.20
2023-01-07T11:46:45.541Z,85.20
2023-01-07T11:49:50.340Z,83.50
2023-01-07T11:53:01.122Z,83.50
2023-01-07T11:56:06.364Z,82.80
2023-01-07T11:59:26.649Z,82.10
2023-01-07T12:02:29.648Z,83.60
2023-01-07T12:05:33.804Z,82.40
2023-01-07T12:08:36.960Z,81.20
2023-01-07T12:11:42.666Z,79.90
2023-01-07T12:14:48.648Z,81.20
2023-01-07T12:18:03.936Z,82.00
2023-01-07T12:21:36.095Z,80.50
2023-01-07T12:25:11.939Z,81.40
2023-01-07T12:28:17.540Z,80.10
2023-01-07T12:31:30.810Z,79.50
2023-01-07T12:34:43.309Z,78.20
2023-01-07T12:37:53.401Z,78.80
2023-01-07T12:41:01.605Z,77.60
2023-01-07T12:44:12.492Z,77.20
2023-01-07T12:47:30.893Z,80.70
2023-01-07T12:50:41.515Z,79.50
2023-01-07T12:53:51.467Z,79.70
2023-01-07T12:56:57.669Z,80.90
2023-01-07T13:00:08.329Z,82.30
2023-01-07T13:03:23.010Z,79.60
2023-01-07T13:06:38.315Z,82.00
2023-01-07T13:09:48.813Z,82.00
2023-01-07T13:12:57.517Z,81.10
2023-01-07T13:16:00.901Z,81.10
2023-01-07T13:19:03.775Z,81.20
2023-01-07T13:22:07.214Z,80.30
2023-01-07T13:25:25.737Z,79.70
2023-01-07T13:29:01.397Z,81.20
2023-01-07T13:32:26.570Z,81.60
2023-01-07T13:39:49.465Z,80.20
2023-01-07T13:42:56.700Z,79.20
2023-01-07T13:46:04.637Z,81.70
2023-01-07T13:49:19.504Z,81.80
2023-01-07T13:52:24.434Z,79.10
2023-01-07T13:55:35.023Z,78.80
2023-01-07T13:58:48.040Z,79.00
2023-01-07T14:02:17.010Z,79.50
2023-01-07T14:05:28.403Z,79.00
2023-01-07T14:08:31.362Z,80.30
2023-01-07T14:11:52.315Z,79.80
2023-01-07T14:15:21.525Z,78.70
2023-01-07T14:19:00.076Z,79.10
2023-01-07T14:22:08.520Z,79.60
2023-01-07T14:25:33.453Z,80.30
2023-01-07T14:29:00.520Z,82.00
2023-01-07T14:32:28.356Z,83.40
2023-01-07T14:35:34.960Z,83.20
2023-01-07T14:38:57.450Z,82.20
2023-01-07T14:42:28.821Z,80.50
2023-01-07T14:45:55.254Z,81.70
2023-01-07T14:49:22.507Z,81.00
2023-01-07T14:53:01.813Z,82.30
2023-01-07T14:56:20.559Z,82.90
2023-01-07T14:59:37.863Z,84.00
2023-01-07T15:03:08.727Z,84.30
2023-01-07T15:06:31.739Z,83.00
2023-01-07T15:09:58.033Z,81.00
2023-01-07T15:13:19.391Z,84.30
2023-01-07T15:16:23.445Z,83.90
2023-01-07T15:19:26.484Z,83.60
2023-01-07T15:22:54.178Z,85.00
2023-01-07T15:26:04.508Z,86.00
2023-01-07T15:29:15.162Z,84.20
2023-01-07T15:32:30.723Z,84.80
2023-01-07T15:35:38.422Z,84.90
2023-01-07T15:38:46.841Z,84.00
2023-01-07T15:41:53.137Z,84.90
2023-01-07T15:44:58.075Z,85.10
2023-01-07T15:48:08.927Z,88.10
2023-01-07T15:51:16.696Z,86.90
2023-01-07T15:54:30.421Z,90.20
2023-01-07T15:57:35.353Z,86.50
2023-01-07T16:00:38.269Z,85.70
2023-01-07T16:03:44.478Z,85.60
2023-01-07T16:06:47.328Z,85.40
2023-01-07T16:09:52.385Z,87.60
2023-01-07T16:12:57.023Z,85.40
2023-01-07T16:16:03.396Z,85.50
2023-01-07T16:19:06.507Z,85.70
2023-01-07T16:22:14.583Z,85.90
2023-01-07T16:25:28.690Z,86.30
2023-01-07T16:28:34.707Z,86.30
2023-01-07T16:31:38.623Z,86.30
2023-01-07T16:35:00.230Z,86.50
2023-01-07T16:38:03.660Z,85.90
2023-01-07T16:41:08.184Z,86.50
2023-01-07T16:44:57.591Z,86.70
2023-01-07T16:48:03.110Z,87.10
2023-01-07T16:51:06.213Z,88.10
2023-01-07T16:54:32.256Z,88.30
2023-01-07T16:57:42.026Z,88.00
2023-01-07T17:00:50.538Z,87.80
2023-01-07T17:03:56.657Z,88.40
2023-01-07T17:07:01.871Z,88.30
2023-01-07T17:10:06.155Z,89.00
2023-01-07T17:13:33.557Z,89.40
2023-01-07T17:16:37.554Z,89.30
2023-01-07T17:19:42.476Z,89.10
2023-01-07T17:22:45.844Z,88.60
2023-01-07T17:25:51.218Z,88.70
2023-01-07T17:28:57.437Z,88.30
2023-01-07T17:32:00.290Z,88.60
2023-01-07T17:35:04.370Z,88.20
2023-01-07T17:38:10.284Z,88.70
2023-01-07T17:41:35.274Z,89.60
2023-01-07T17:44:38.474Z,88.60
2023-01-07T17:47:41.345Z,88.20
2023-01-07T17:50:44.656Z,89.00
2023-01-07T17:53:49.116Z,89.50
2023-01-07T17:56:52.366Z,89.80
2023-01-07T17:59:58.030Z,89.70
2023-01-07T18:03:00.994Z,89.60
2023-01-07T18:06:03.918Z,89.50
2023-01-07T18:09:08.559Z,89.30
2023-01-07T18:12:33.367Z,89.40
2023-01-07T18:15:37.492Z,89.60
2023-01-07T18:18:40.414Z,89.80
2023-01-07T18:21:43.247Z,89.50
2023-01-07T18:24:46.057Z,89.70
2023-01-07T18:27:52.561Z,89.80
2023-01-07T18:30:56.965Z,89.90
2023-01-07T18:33:59.756Z,90.00
2023-01-07T18:37:02.650Z,90.90
2023-01-07T18:40:06.630Z,90.60
2023-01-07T18:43:13.069Z,90.40
2023-01-07T18:46:17.795Z,90.30
2023-01-07T18:49:20.652Z,90.40
2023-01-07T18:52:23.896Z,90.40
2023-01-07T18:55:27.458Z,90.20
2023-01-07T18:58:30.546Z,90.20
2023-01-07T19:01:34.837Z,90.20
2023-01-07T19:04:39.758Z,90.40
2023-01-07T19:07:43.372Z,90.60
2023-01-07T19:10:46.153Z,90.40
2023-01-07T19:13:48.944Z,90.60
2023-01-07T19:16:54.569Z,90.90
2023-01-07T19:19:57.395Z,91.30
2023-01-07T19:23:01.124Z,91.50
2023-01-07T19:26:06.397Z,91.40
2023-01-07T19:29:09.576Z,91.30
2023-01-07T19:32:13.688Z,91.30
2023-01-07T19:35:16.557Z,91.30
2023-01-07T19:38:19.417Z,91.20
2023-01-07T19:41:23.582Z,91.50
2023-01-07T19:44:26.571Z,91.10
2023-01-07T19:47:30.803Z,91.10
2023-01-07T19:50:33.722Z,91.10
2023-01-07T19:53:37.086Z,91.20
2023-01-07T19:56:40.773Z,91.20
2023-01-07T19:59:43.551Z,91.30
2023-01-07T20:02:47.819Z,91.40
2023-01-07T20:05:50.712Z,91.40
2023-01-07T20:08:54.731Z,91.40
2023-01-07T20:11:57.528Z,91.20
2023-01-07T20:15:00.358Z,91.10
2023-01-07T20:18:04.661Z,91.20
2023-01-07T20:21:08.470Z,90.90
2023-01-07T20:24:13.169Z,91.00
2023-01-07T20:27:15.982Z,91.20
2023-01-07T20:30:18.856Z,91.20
2023-01-07T20:33:22.959Z,91.10
2023-01-07T20:36:28.092Z,90.80
2023-01-07T20:39:30.893Z,90.70
2023-01-07T20:42:33.810Z,90.70
2023-01-07T20:45:38.536Z,90.60
2023-01-07T20:48:42.906Z,90.70
2023-01-07T20:51:45.817Z,90.80
2023-01-07T20:54:48.872Z,91.00
2023-01-07T20:57:51.672Z,91.00
2023-01-07T21:00:54.677Z,90.90
2023-01-07T21:03:58.932Z,90.80
2023-01-07T21:07:01.747Z,90.60
2023-01-07T21:10:05.042Z,90.50
2023-01-07T21:13:07.835Z,90.70
2023-01-07T21:16:11.760Z,91.10
2023-01-07T21:19:15.912Z,90.70
2023-01-07T21:22:18.705Z,90.70
2023-01-07T21:25:21.550Z,90.70
2023-01-07T21:28:24.440Z,90.70
2023-01-07T21:31:27.895Z,90.70
2023-01-07T21:34:32.172Z,90.70
2023-01-07T21:37:35.020Z,90.80
2023-01-07T21:40:39.185Z,90.80
2023-01-07T21:43:42.209Z,90.70
2023-01-07T21:46:45.042Z,90.70
2023-01-07T21:49:49.624Z,90.80
2023-01-07T21:52:52.443Z,91.00
2023-01-07T21:55:55.247Z,91.20
2023-01-07T21:58:58.082Z,91.30
2023-01-07T22:02:01.111Z,91.10
2023-01-07T22:05:05.808Z,91.00
2023-01-07T22:08:09.098Z,90.70
2023-01-07T22:11:14.235Z,90.80
2023-01-07T22:14:19.354Z,90.80
2023-01-07T22:17:23.973Z,90.80
2023-01-07T22:20:28.197Z,90.70
2023-01-07T22:23:30.992Z,90.70
2023-01-07T22:26:33.882Z,90.70
2023-01-07T22:29:37.531Z,90.90
2023-01-07T22:32:40.354Z,90.80
2023-01-07T22:35:44.964Z,90.70
2023-01-07T22:38:47.889Z,90.80
2023-01-07T22:41:55.433Z,90.80
2023-01-07T22:45:03.582Z,90.80
2023-01-07T22:48:08.243Z,90.90
2023-01-07T22:51:19.863Z,91.00
2023-01-07T22:54:22.733Z,91.00
2023-01-07T22:57:25.809Z,90.90
2023-01-07T23:00:42.417Z,90.80
2023-01-07T23:03:46.157Z,90.70
2023-01-07T23:06:50.401Z,90.80
2023-01-07T23:09:53.180Z,91.00
2023-01-07T23:12:56.038Z,91.10
2023-01-07T23:16:01.835Z,91.20
2023-01-07T23:19:04.731Z,91.70
2023-01-07T23:22:08.885Z,91.30
2023-01-07T23:25:11.750Z,91.20
2023-01-07T23:28:14.784Z,91.30
2023-01-07T23:31:17.618Z,91.10
2023-01-07T23:34:20.461Z,91.30
2023-01-07T23:37:24.706Z,91.40
2023-01-07T23:40:27.844Z,91.40
2023-01-07T23:43:31.100Z,91.50
2023-01-07T23:46:33.940Z,91.30
2023-01-07T23:49:36.756Z,91.50
2023-01-07T23:52:40.959Z,91.50
2023-01-07T23:55:51.593Z,91.50
2023-01-07T23:58:54.458Z,91.60
